sensor_id;sensor_type;location;lat;lon;timestamp;pressure;altitude;pressure_sealevel;temperature;humidity
3444;BME280;1736;52.068;6.968;2023-07-08T00:00:15;101321.94;;;19.01;60.68
3444;BME280;1736;52.068;6.968;2023-07-08T00:02:43;101312.72;;;18.96;61.38
3444;BME280;1736;52.068;6.968;2023-07-08T00:05:11;101312.03;;;18.86;61.69
3444;BME280;1736;52.068;6.968;2023-07-08T00:07:37;101305.13;;;18.75;62.34
3444;BME280;1736;52.068;6.968;2023-07-08T00:10:15;101298.88;;;18.75;61.88
3444;BME280;1736;52.068;6.968;2023-07-08T00:12:42;101301.78;;;18.73;62.49
3444;BME280;1736;52.068;6.968;2023-07-08T00:15:09;101297.75;;;18.77;62.31
3444;BME280;1736;52.068;6.968;2023-07-08T00:17:36;101294.38;;;18.75;62.85
3444;BME280;1736;52.068;6.968;2023-07-08T00:20:10;101288.97;;;18.67;62.71
3444;BME280;1736;52.068;6.968;2023-07-08T00:22:38;101291.19;;;18.72;62.50
3444;BME280;1736;52.068;6.968;2023-07-08T00:25:06;101288.66;;;18.70;62.24
3444;BME280;1736;52.068;6.968;2023-07-08T00:27:34;101287.31;;;18.74;62.55
3444;BME280;1736;52.068;6.968;2023-07-08T00:30:01;101285.44;;;18.67;62.67
3444;BME280;1736;52.068;6.968;2023-07-08T00:32:27;101276.00;;;18.63;62.89
3444;BME280;1736;52.068;6.968;2023-07-08T00:34:54;101284.59;;;18.58;63.28
3444;BME280;1736;52.068;6.968;2023-07-08T00:37:20;101288.28;;;18.49;63.63
3444;BME280;1736;52.068;6.968;2023-07-08T00:39:47;101286.94;;;18.45;64.03
3444;BME280;1736;52.068;6.968;2023-07-08T00:42:17;101282.06;;;18.49;63.63
3444;BME280;1736;52.068;6.968;2023-07-08T00:44:46;101268.78;;;18.47;63.93
3444;BME280;1736;52.068;6.968;2023-07-08T00:47:14;101272.97;;;18.50;64.08
3444;BME280;1736;52.068;6.968;2023-07-08T00:49:45;101272.50;;;18.54;63.34
3444;BME280;1736;52.068;6.968;2023-07-08T00:52:22;101275.19;;;18.54;63.33
3444;BME280;1736;52.068;6.968;2023-07-08T00:54:51;101268.44;;;18.42;63.76
3444;BME280;1736;52.068;6.968;2023-07-08T00:57:18;101267.25;;;18.37;64.15
3444;BME280;1736;52.068;6.968;2023-07-08T00:59:50;101271.44;;;18.39;63.99
3444;BME280;1736;52.068;6.968;2023-07-08T01:02:21;101265.00;;;18.32;64.34
3444;BME280;1736;52.068;6.968;2023-07-08T01:04:52;101255.84;;;18.43;63.66
3444;BME280;1736;52.068;6.968;2023-07-08T01:07:20;101266.56;;;18.35;64.34
3444;BME280;1736;52.068;6.968;2023-07-08T01:09:54;101259.63;;;18.24;64.81
3444;BME280;1736;52.068;6.968;2023-07-08T01:12:27;101260.63;;;18.23;65.23
3444;BME280;1736;52.068;6.968;2023-07-08T01:14:59;101248.69;;;18.26;64.68
3444;BME280;1736;52.068;6.968;2023-07-08T01:17:28;101254.22;;;18.16;65.36
3444;BME280;1736;52.068;6.968;2023-07-08T01:19:58;101248.16;;;18.14;65.27
3444;BME280;1736;52.068;6.968;2023-07-08T01:22:26;101249.03;;;18.15;65.50
3444;BME280;1736;52.068;6.968;2023-07-08T01:24:58;101257.25;;;18.13;65.27
3444;BME280;1736;52.068;6.968;2023-07-08T01:27:30;101253.22;;;18.17;65.30
3444;BME280;1736;52.068;6.968;2023-07-08T01:29:57;101251.88;;;18.13;65.47
3444;BME280;1736;52.068;6.968;2023-07-08T01:32:24;101246.13;;;18.00;66.04
3444;BME280;1736;52.068;6.968;2023-07-08T01:34:56;101245.75;;;17.95;66.30
3444;BME280;1736;52.068;6.968;2023-07-08T01:37:34;101242.03;;;17.88;67.05
3444;BME280;1736;52.068;6.968;2023-07-08T01:40:25;101231.78;;;17.84;66.99
3444;BME280;1736;52.068;6.968;2023-07-08T01:42:53;101230.56;;;17.78;67.25
3444;BME280;1736;52.068;6.968;2023-07-08T01:45:21;101235.91;;;17.70;67.67
3444;BME280;1736;52.068;6.968;2023-07-08T01:47:55;101243.00;;;17.79;67.87
3444;BME280;1736;52.068;6.968;2023-07-08T01:50:23;101239.59;;;17.69;67.71
3444;BME280;1736;52.068;6.968;2023-07-08T01:52:53;101234.38;;;17.68;67.67
3444;BME280;1736;52.068;6.968;2023-07-08T01:55:22;101236.22;;;17.67;68.10
3444;BME280;1736;52.068;6.968;2023-07-08T01:57:51;101226.78;;;17.55;68.32
3444;BME280;1736;52.068;6.968;2023-07-08T02:00:18;101214.69;;;17.51;68.96
3444;BME280;1736;52.068;6.968;2023-07-08T02:02:45;101216.38;;;17.52;68.92
3444;BME280;1736;52.068;6.968;2023-07-08T02:05:12;101219.53;;;17.48;69.25
3444;BME280;1736;52.068;6.968;2023-07-08T02:07:39;101208.78;;;17.48;69.60
3444;BME280;1736;52.068;6.968;2023-07-08T02:10:08;101213.09;;;17.41;69.45
3444;BME280;1736;52.068;6.968;2023-07-08T02:12:34;101206.25;;;17.46;68.89
3444;BME280;1736;52.068;6.968;2023-07-08T02:15:01;101211.28;;;17.41;68.99
3444;BME280;1736;52.068;6.968;2023-07-08T02:17:28;101208.88;;;17.38;68.85
3444;BME280;1736;52.068;6.968;2023-07-08T02:19:55;101214.31;;;17.46;68.23
3444;BME280;1736;52.068;6.968;2023-07-08T02:22:22;101212.63;;;17.45;68.62
3444;BME280;1736;52.068;6.968;2023-07-08T02:24:48;101203.56;;;17.46;68.42
3444;BME280;1736;52.068;6.968;2023-07-08T02:27:16;101197.63;;;17.35;68.78
3444;BME280;1736;52.068;6.968;2023-07-08T02:29:43;101197.09;;;17.31;69.08
3444;BME280;1736;52.068;6.968;2023-07-08T02:32:10;101193.38;;;17.24;70.43
3444;BME280;1736;52.068;6.968;2023-07-08T02:34:37;101191.75;;;17.31;69.89
3444;BME280;1736;52.068;6.968;2023-07-08T02:37:03;101186.44;;;17.39;69.38
3444;BME280;1736;52.068;6.968;2023-07-08T02:39:30;101185.88;;;17.36;68.90
3444;BME280;1736;52.068;6.968;2023-07-08T02:41:56;101190.03;;;17.30;69.98
3444;BME280;1736;52.068;6.968;2023-07-08T02:44:24;101178.59;;;17.20;70.00
3444;BME280;1736;52.068;6.968;2023-07-08T02:46:51;101188.41;;;17.12;70.42
3444;BME280;1736;52.068;6.968;2023-07-08T02:49:18;101190.22;;;17.03;71.24
3444;BME280;1736;52.068;6.968;2023-07-08T02:51:44;101180.47;;;17.02;71.15
3444;BME280;1736;52.068;6.968;2023-07-08T02:54:11;101194.53;;;16.96;71.44
3444;BME280;1736;52.068;6.968;2023-07-08T02:56:38;101185.09;;;16.92;71.25
3444;BME280;1736;52.068;6.968;2023-07-08T02:59:04;101183.75;;;16.88;72.07
3444;BME280;1736;52.068;6.968;2023-07-08T03:01:33;101183.75;;;16.88;71.59
3444;BME280;1736;52.068;6.968;2023-07-08T03:04:06;101177.31;;;16.81;72.09
3444;BME280;1736;52.068;6.968;2023-07-08T03:06:34;101180.00;;;16.81;71.65
3444;BME280;1736;52.068;6.968;2023-07-08T03:09:00;101182.00;;;16.79;71.70
3444;BME280;1736;52.068;6.968;2023-07-08T03:11:27;101186.34;;;16.80;72.54
3444;BME280;1736;52.068;6.968;2023-07-08T03:13:53;101189.19;;;16.79;72.70
3444;BME280;1736;52.068;6.968;2023-07-08T03:16:20;101182.59;;;16.73;72.83
3444;BME280;1736;52.068;6.968;2023-07-08T03:18:48;101182.00;;;16.79;72.08
3444;BME280;1736;52.068;6.968;2023-07-08T03:21:17;101181.00;;;16.80;72.36
3444;BME280;1736;52.068;6.968;2023-07-08T03:23:44;101171.88;;;16.73;73.32
3444;BME280;1736;52.068;6.968;2023-07-08T03:26:12;101166.69;;;16.72;73.18
3444;BME280;1736;52.068;6.968;2023-07-08T03:28:40;101164.50;;;16.67;73.57
3444;BME280;1736;52.068;6.968;2023-07-08T03:31:08;101172.69;;;16.66;73.80
3444;BME280;1736;52.068;6.968;2023-07-08T03:33:35;101171.75;;;16.57;74.20
3444;BME280;1736;52.068;6.968;2023-07-08T03:36:04;101174.44;;;16.57;74.38
3444;BME280;1736;52.068;6.968;2023-07-08T03:38:36;101172.25;;;16.53;74.64
3444;BME280;1736;52.068;6.968;2023-07-08T03:41:03;101178.41;;;16.53;74.59
3444;BME280;1736;52.068;6.968;2023-07-08T03:43:30;101173.75;;;16.55;74.47
3444;BME280;1736;52.068;6.968;2023-07-08T03:45:56;101169.25;;;16.56;74.42
3444;BME280;1736;52.068;6.968;2023-07-08T03:48:23;101173.13;;;16.61;74.00
3444;BME280;1736;52.068;6.968;2023-07-08T03:50:50;101175.81;;;16.61;74.01
3444;BME280;1736;52.068;6.968;2023-07-08T03:53:18;101179.34;;;16.62;74.16
3444;BME280;1736;52.068;6.968;2023-07-08T03:55:45;101181.38;;;16.68;73.95
3444;BME280;1736;52.068;6.968;2023-07-08T03:58:12;101180.78;;;16.74;74.12
3444;BME280;1736;52.068;6.968;2023-07-08T04:00:38;101184.78;;;16.70;73.90
3444;BME280;1736;52.068;6.968;2023-07-08T04:03:05;101181.38;;;16.68;74.30
3444;BME280;1736;52.068;6.968;2023-07-08T04:05:31;101184.78;;;16.70;73.42
3444;BME280;1736;52.068;6.968;2023-07-08T04:07:58;101192.03;;;16.77;73.06
3444;BME280;1736;52.068;6.968;2023-07-08T04:10:26;101195.09;;;16.82;72.41
3444;BME280;1736;52.068;6.968;2023-07-08T04:12:53;101203.56;;;16.95;71.50
3444;BME280;1736;52.068;6.968;2023-07-08T04:15:20;101195.53;;;16.95;71.65
3444;BME280;1736;52.068;6.968;2023-07-08T04:17:52;101193.53;;;16.97;71.49
3444;BME280;1736;52.068;6.968;2023-07-08T04:20:21;101203.00;;;17.09;70.62
3444;BME280;1736;52.068;6.968;2023-07-08T04:22:48;101188.81;;;17.17;70.30
3444;BME280;1736;52.068;6.968;2023-07-08T04:25:15;101184.84;;;17.29;70.42
3444;BME280;1736;52.068;6.968;2023-07-08T04:27:43;101200.47;;;17.33;69.85
3444;BME280;1736;52.068;6.968;2023-07-08T04:30:17;101198.97;;;17.39;69.58
3444;BME280;1736;52.068;6.968;2023-07-08T04:32:46;101194.47;;;17.39;70.05
3444;BME280;1736;52.068;6.968;2023-07-08T04:35:15;101187.16;;;17.49;70.19
3444;BME280;1736;52.068;6.968;2023-07-08T04:37:42;101193.66;;;17.72;69.38
3444;BME280;1736;52.068;6.968;2023-07-08T04:40:16;101190.53;;;18.01;68.79
3444;BME280;1736;52.068;6.968;2023-07-08T04:42:45;101199.06;;;18.38;67.02
3444;BME280;1736;52.068;6.968;2023-07-08T04:45:14;101203.13;;;18.82;65.21
3444;BME280;1736;52.068;6.968;2023-07-08T04:47:41;101204.09;;;19.29;63.22
3444;BME280;1736;52.068;6.968;2023-07-08T04:50:09;101206.44;;;19.78;61.74
3444;BME280;1736;52.068;6.968;2023-07-08T04:52:36;101206.97;;;20.21;59.27
3444;BME280;1736;52.068;6.968;2023-07-08T04:55:03;101202.78;;;20.63;57.83
3444;BME280;1736;52.068;6.968;2023-07-08T04:57:30;101199.78;;;20.81;56.73
3444;BME280;1736;52.068;6.968;2023-07-08T04:59:58;101198.41;;;21.22;54.80
3444;BME280;1736;52.068;6.968;2023-07-08T05:02:24;101199.22;;;21.66;53.90
3444;BME280;1736;52.068;6.968;2023-07-08T05:04:51;101197.75;;;22.07;52.92
3444;BME280;1736;52.068;6.968;2023-07-08T05:07:18;101195.56;;;22.38;51.51
3444;BME280;1736;52.068;6.968;2023-07-08T05:09:44;101196.31;;;22.67;49.76
3444;BME280;1736;52.068;6.968;2023-07-08T05:12:11;101194.56;;;23.02;49.34
3444;BME280;1736;52.068;6.968;2023-07-08T05:14:38;101193.66;;;22.95;49.18
3444;BME280;1736;52.068;6.968;2023-07-08T05:17:06;101184.34;;;23.25;48.46
3444;BME280;1736;52.068;6.968;2023-07-08T05:19:32;101191.31;;;23.81;47.43
3444;BME280;1736;52.068;6.968;2023-07-08T05:21:59;101197.69;;;24.01;46.20
3444;BME280;1736;52.068;6.968;2023-07-08T05:24:26;101201.50;;;24.19;45.59
3444;BME280;1736;52.068;6.968;2023-07-08T05:26:52;101202.47;;;24.59;45.12
3444;BME280;1736;52.068;6.968;2023-07-08T05:29:20;101191.22;;;25.01;44.81
3444;BME280;1736;52.068;6.968;2023-07-08T05:31:46;101204.59;;;25.16;43.39
3444;BME280;1736;52.068;6.968;2023-07-08T05:34:15;101212.53;;;25.17;42.86
3444;BME280;1736;52.068;6.968;2023-07-08T05:36:42;101219.00;;;25.42;42.73
3444;BME280;1736;52.068;6.968;2023-07-08T05:39:08;101212.47;;;25.69;42.45
3444;BME280;1736;52.068;6.968;2023-07-08T05:41:36;101196.84;;;25.52;42.49
3444;BME280;1736;52.068;6.968;2023-07-08T05:44:02;101200.13;;;25.73;42.27
3444;BME280;1736;52.068;6.968;2023-07-08T05:46:29;101189.00;;;25.75;42.75
3444;BME280;1736;52.068;6.968;2023-07-08T05:48:56;101183.13;;;25.84;42.26
3444;BME280;1736;52.068;6.968;2023-07-08T05:51:24;101184.50;;;25.49;42.64
3444;BME280;1736;52.068;6.968;2023-07-08T05:53:50;101182.22;;;25.46;41.82
3444;BME280;1736;52.068;6.968;2023-07-08T05:56:17;101197.88;;;25.44;42.56
3444;BME280;1736;52.068;6.968;2023-07-08T05:58:43;101187.88;;;25.12;42.99
3444;BME280;1736;52.068;6.968;2023-07-08T06:01:10;101189.97;;;25.10;43.24
3444;BME280;1736;52.068;6.968;2023-07-08T06:03:37;101185.56;;;25.16;43.10
3444;BME280;1736;52.068;6.968;2023-07-08T06:06:03;101189.34;;;24.82;44.01
3444;BME280;1736;52.068;6.968;2023-07-08T06:08:33;101193.31;;;25.38;43.48
3444;BME280;1736;52.068;6.968;2023-07-08T06:10:59;101188.69;;;25.19;43.21
3444;BME280;1736;52.068;6.968;2023-07-08T06:13:26;101181.81;;;25.30;43.76
3444;BME280;1736;52.068;6.968;2023-07-08T06:15:53;101185.78;;;25.14;43.12
3444;BME280;1736;52.068;6.968;2023-07-08T06:18:19;101172.41;;;25.19;43.62
3444;BME280;1736;52.068;6.968;2023-07-08T06:20:53;101178.63;;;25.59;42.95
3444;BME280;1736;52.068;6.968;2023-07-08T06:23:20;101182.56;;;25.69;42.85
3444;BME280;1736;52.068;6.968;2023-07-08T06:25:48;101185.38;;;26.00;42.03
3444;BME280;1736;52.068;6.968;2023-07-08T06:28:16;101192.28;;;26.03;41.78
3444;BME280;1736;52.068;6.968;2023-07-08T06:30:43;101201.78;;;26.31;41.00
3444;BME280;1736;52.068;6.968;2023-07-08T06:33:10;101217.00;;;26.39;41.00
3444;BME280;1736;52.068;6.968;2023-07-08T06:35:36;101214.06;;;26.40;41.50
3444;BME280;1736;52.068;6.968;2023-07-08T06:38:03;101196.66;;;26.41;41.60
3444;BME280;1736;52.068;6.968;2023-07-08T06:40:30;101196.28;;;26.38;42.43
3444;BME280;1736;52.068;6.968;2023-07-08T06:42:58;101189.53;;;26.47;42.13
3444;BME280;1736;52.068;6.968;2023-07-08T06:45:24;101197.47;;;26.48;42.24
3444;BME280;1736;52.068;6.968;2023-07-08T06:47:51;101189.88;;;26.26;42.14
3444;BME280;1736;52.068;6.968;2023-07-08T06:53:39;101187.34;;;26.24;42.00
3444;BME280;1736;52.068;6.968;2023-07-08T06:56:06;101186.97;;;26.21;42.52
3444;BME280;1736;52.068;6.968;2023-07-08T06:58:34;101183.31;;;26.33;42.43
3444;BME280;1736;52.068;6.968;2023-07-08T07:01:01;101179.63;;;26.21;42.44
3444;BME280;1736;52.068;6.968;2023-07-08T07:03:27;101182.03;;;26.42;42.58
3444;BME280;1736;52.068;6.968;2023-07-08T07:05:54;101184.03;;;26.53;41.76
3444;BME280;1736;52.068;6.968;2023-07-08T07:08:21;101186.00;;;26.46;42.00
3444;BME280;1736;52.068;6.968;2023-07-08T07:10:47;101193.09;;;26.78;41.76
3444;BME280;1736;52.068;6.968;2023-07-08T07:13:14;101188.66;;;27.08;40.83
3444;BME280;1736;52.068;6.968;2023-07-08T07:15:41;101191.00;;;26.80;41.46
3444;BME280;1736;52.068;6.968;2023-07-08T07:18:08;101181.06;;;26.61;41.28
3444;BME280;1736;52.068;6.968;2023-07-08T07:20:37;101178.88;;;26.76;41.13
3444;BME280;1736;52.068;6.968;2023-07-08T07:23:04;101180.84;;;26.94;41.13
3444;BME280;1736;52.068;6.968;2023-07-08T07:25:30;101181.50;;;27.14;40.92
3444;BME280;1736;52.068;6.968;2023-07-08T07:27:57;101185.38;;;27.00;40.81
3444;BME280;1736;52.068;6.968;2023-07-08T07:30:24;101173.97;;;27.09;40.96
3444;BME280;1736;52.068;6.968;2023-07-08T07:32:52;101169.44;;;27.03;40.95
3444;BME280;1736;52.068;6.968;2023-07-08T07:35:18;101170.88;;;27.06;41.14
3444;BME280;1736;52.068;6.968;2023-07-08T07:37:45;101172.38;;;27.26;40.57
3444;BME280;1736;52.068;6.968;2023-07-08T07:40:12;101175.28;;;27.49;40.18
3444;BME280;1736;52.068;6.968;2023-07-08T07:42:41;101184.28;;;27.68;40.67
3444;BME280;1736;52.068;6.968;2023-07-08T07:45:09;101185.59;;;27.65;40.70
3444;BME280;1736;52.068;6.968;2023-07-08T07:47:36;101185.75;;;27.88;40.05
3444;BME280;1736;52.068;6.968;2023-07-08T07:50:05;101189.59;;;27.63;40.15
3444;BME280;1736;52.068;6.968;2023-07-08T07:52:32;101188.31;;;27.83;40.38
3444;BME280;1736;52.068;6.968;2023-07-08T07:54:59;101189.59;;;27.81;40.43
3444;BME280;1736;52.068;6.968;2023-07-08T07:57:26;101187.03;;;27.86;40.23
3444;BME280;1736;52.068;6.968;2023-07-08T07:59:52;101182.69;;;28.14;39.28
3444;BME280;1736;52.068;6.968;2023-07-08T08:02:19;101185.22;;;28.27;38.82
3444;BME280;1736;52.068;6.968;2023-07-08T08:04:46;101192.50;;;28.33;38.73
3444;BME280;1736;52.068;6.968;2023-07-08T08:07:14;101186.53;;;28.55;38.57
3444;BME280;1736;52.068;6.968;2023-07-08T08:09:40;101196.06;;;28.64;39.08
3444;BME280;1736;52.068;6.968;2023-07-08T08:12:08;101196.81;;;28.71;38.49
3444;BME280;1736;52.068;6.968;2023-07-08T08:14:36;101197.91;;;28.93;37.62
3444;BME280;1736;52.068;6.968;2023-07-08T08:17:03;101192.31;;;28.99;38.42
3444;BME280;1736;52.068;6.968;2023-07-08T08:19:30;101196.09;;;28.75;38.97
3444;BME280;1736;52.068;6.968;2023-07-08T08:21:56;101190.16;;;28.67;39.19
3444;BME280;1736;52.068;6.968;2023-07-08T08:24:24;101191.22;;;28.77;39.61
3444;BME280;1736;52.068;6.968;2023-07-08T08:26:51;101190.53;;;28.93;38.39
3444;BME280;1736;52.068;6.968;2023-07-08T08:29:18;101185.72;;;29.07;38.05
3444;BME280;1736;52.068;6.968;2023-07-08T08:31:45;101182.94;;;28.95;39.20
3444;BME280;1736;52.068;6.968;2023-07-08T08:34:11;101174.78;;;29.07;39.81
3444;BME280;1736;52.068;6.968;2023-07-08T08:36:38;101176.09;;;29.16;38.58
3444;BME280;1736;52.068;6.968;2023-07-08T08:39:04;101172.53;;;29.15;38.18
3444;BME280;1736;52.068;6.968;2023-07-08T08:41:33;101175.75;;;29.24;36.78
3444;BME280;1736;52.068;6.968;2023-07-08T08:44:02;101176.81;;;29.11;36.92
3444;BME280;1736;52.068;6.968;2023-07-08T08:46:33;101185.50;;;29.20;37.77
3444;BME280;1736;52.068;6.968;2023-07-08T08:49:05;101179.78;;;29.33;37.23
3444;BME280;1736;52.068;6.968;2023-07-08T08:51:39;101182.28;;;29.34;36.99
3444;BME280;1736;52.068;6.968;2023-07-08T08:54:07;101189.66;;;29.45;37.02
3444;BME280;1736;52.068;6.968;2023-07-08T08:56:40;101190.38;;;29.29;36.66
3444;BME280;1736;52.068;6.968;2023-07-08T08:59:15;101192.50;;;29.27;37.06
3444;BME280;1736;52.068;6.968;2023-07-08T09:01:45;101183.69;;;29.37;37.37
3444;BME280;1736;52.068;6.968;2023-07-08T09:04:15;101182.16;;;29.41;37.09
3444;BME280;1736;52.068;6.968;2023-07-08T09:06:46;101186.06;;;29.45;36.55
3444;BME280;1736;52.068;6.968;2023-07-08T09:09:16;101192.72;;;29.49;36.35
3444;BME280;1736;52.068;6.968;2023-07-08T09:11:51;101185.97;;;29.40;37.20
3444;BME280;1736;52.068;6.968;2023-07-08T09:14:24;101187.13;;;29.67;36.33
3444;BME280;1736;52.068;6.968;2023-07-08T09:16:57;101190.94;;;29.66;36.33
3444;BME280;1736;52.068;6.968;2023-07-08T09:19:28;101189.50;;;29.75;35.64
3444;BME280;1736;52.068;6.968;2023-07-08T09:21:59;101193.81;;;29.99;35.64
3444;BME280;1736;52.068;6.968;2023-07-08T09:24:41;101193.34;;;30.02;36.47
3444;BME280;1736;52.068;6.968;2023-07-08T09:27:10;101193.09;;;30.15;34.92
3444;BME280;1736;52.068;6.968;2023-07-08T09:29:37;101191.16;;;30.27;35.25
3444;BME280;1736;52.068;6.968;2023-07-08T09:32:14;101188.56;;;30.20;34.74
3444;BME280;1736;52.068;6.968;2023-07-08T09:34:43;101186.59;;;30.32;35.14
3444;BME280;1736;52.068;6.968;2023-07-08T09:37:26;101187.91;;;30.30;34.88
3444;BME280;1736;52.068;6.968;2023-07-08T09:39:54;101183.53;;;30.29;35.79
3444;BME280;1736;52.068;6.968;2023-07-08T09:42:27;101187.78;;;30.36;35.96
3444;BME280;1736;52.068;6.968;2023-07-08T09:44:56;101186.59;;;29.93;34.79
3444;BME280;1736;52.068;6.968;2023-07-08T09:47:25;101186.38;;;29.83;35.24
3444;BME280;1736;52.068;6.968;2023-07-08T09:49:54;101184.19;;;29.96;35.36
3444;BME280;1736;52.068;6.968;2023-07-08T09:52:21;101180.88;;;29.94;34.50
3444;BME280;1736;52.068;6.968;2023-07-08T09:54:48;101182.97;;;29.76;35.77
3444;BME280;1736;52.068;6.968;2023-07-08T09:57:24;101188.97;;;30.01;34.92
3444;BME280;1736;52.068;6.968;2023-07-08T09:59:53;101192.25;;;30.14;35.30
3444;BME280;1736;52.068;6.968;2023-07-08T10:02:27;101185.75;;;30.32;34.01
3444;BME280;1736;52.068;6.968;2023-07-08T10:04:56;101182.78;;;30.33;34.30
3444;BME280;1736;52.068;6.968;2023-07-08T10:07:23;101176.81;;;30.53;34.50
3444;BME280;1736;52.068;6.968;2023-07-08T10:09:51;101178.31;;;30.72;34.70
3444;BME280;1736;52.068;6.968;2023-07-08T10:12:23;101185.78;;;30.76;35.22
3444;BME280;1736;52.068;6.968;2023-07-08T10:14:52;101184.13;;;30.92;34.07
3444;BME280;1736;52.068;6.968;2023-07-08T10:17:21;101179.72;;;31.07;33.44
3444;BME280;1736;52.068;6.968;2023-07-08T10:19:48;101179.53;;;31.14;33.08
3444;BME280;1736;52.068;6.968;2023-07-08T10:22:24;101176.16;;;31.07;32.24
3444;BME280;1736;52.068;6.968;2023-07-08T10:25:02;101172.25;;;30.86;33.68
3444;BME280;1736;52.068;6.968;2023-07-08T10:27:36;101172.75;;;31.16;33.40
3444;BME280;1736;52.068;6.968;2023-07-08T10:30:16;101182.88;;;31.16;32.02
3444;BME280;1736;52.068;6.968;2023-07-08T10:32:55;101165.94;;;31.19;31.98
3444;BME280;1736;52.068;6.968;2023-07-08T10:35:28;101159.34;;;31.03;32.05
3444;BME280;1736;52.068;6.968;2023-07-08T10:38:09;101166.34;;;31.27;33.08
3444;BME280;1736;52.068;6.968;2023-07-08T10:40:47;101175.31;;;31.61;31.72
3444;BME280;1736;52.068;6.968;2023-07-08T10:43:44;101174.38;;;31.72;30.81
3444;BME280;1736;52.068;6.968;2023-07-08T10:46:23;101177.13;;;31.72;32.49
3444;BME280;1736;52.068;6.968;2023-07-08T10:51:48;101176.59;;;31.75;32.02
3444;BME280;1736;52.068;6.968;2023-07-08T10:54:39;101174.22;;;31.78;31.22
3444;BME280;1736;52.068;6.968;2023-07-08T10:57:25;101175.13;;;31.67;31.33
3444;BME280;1736;52.068;6.968;2023-07-08T11:00:10;101176.91;;;31.57;32.10
3444;BME280;1736;52.068;6.968;2023-07-08T11:02:59;101170.72;;;31.45;31.96
3444;BME280;1736;52.068;6.968;2023-07-08T11:05:34;101174.88;;;31.47;32.61
3444;BME280;1736;52.068;6.968;2023-07-08T11:08:10;101175.63;;;31.81;31.72
3444;BME280;1736;52.068;6.968;2023-07-08T11:10:46;101171.59;;;31.88;31.95
3444;BME280;1736;52.068;6.968;2023-07-08T11:13:17;101171.41;;;31.95;32.53
3444;BME280;1736;52.068;6.968;2023-07-08T11:15:52;101166.25;;;31.98;31.99
3444;BME280;1736;52.068;6.968;2023-07-08T11:18:26;101167.50;;;32.12;32.68
3444;BME280;1736;52.068;6.968;2023-07-08T11:21:00;101169.97;;;32.14;32.87
3444;BME280;1736;52.068;6.968;2023-07-08T11:23:31;101167.38;;;32.02;31.85
3444;BME280;1736;52.068;6.968;2023-07-08T11:26:09;101172.16;;;32.12;32.54
3444;BME280;1736;52.068;6.968;2023-07-08T11:28:37;101159.00;;;32.14;32.50
3444;BME280;1736;52.068;6.968;2023-07-08T11:31:06;101166.78;;;32.22;32.43
3444;BME280;1736;52.068;6.968;2023-07-08T11:33:34;101165.16;;;32.26;32.75
3444;BME280;1736;52.068;6.968;2023-07-08T11:36:02;101154.66;;;32.18;32.61
3444;BME280;1736;52.068;6.968;2023-07-08T11:38:31;101148.91;;;32.19;33.70
3444;BME280;1736;52.068;6.968;2023-07-08T11:41:01;101137.28;;;32.34;33.11
3444;BME280;1736;52.068;6.968;2023-07-08T11:43:40;101142.91;;;32.49;32.16
3444;BME280;1736;52.068;6.968;2023-07-08T11:46:13;101143.91;;;32.38;32.27
3444;BME280;1736;52.068;6.968;2023-07-08T11:48:45;101142.53;;;32.41;32.85
3444;BME280;1736;52.068;6.968;2023-07-08T11:51:17;101134.66;;;32.49;32.75
3444;BME280;1736;52.068;6.968;2023-07-08T11:53:49;101133.63;;;32.55;30.99
3444;BME280;1736;52.068;6.968;2023-07-08T11:56:22;101122.38;;;32.57;30.69
3444;BME280;1736;52.068;6.968;2023-07-08T11:59:04;101120.97;;;32.54;31.35
3444;BME280;1736;52.068;6.968;2023-07-08T12:01:38;101122.00;;;32.48;31.00
3444;BME280;1736;52.068;6.968;2023-07-08T12:04:32;101118.13;;;32.44;31.75
3444;BME280;1736;52.068;6.968;2023-07-08T12:07:11;101128.69;;;32.57;32.05
3444;BME280;1736;52.068;6.968;2023-07-08T12:09:45;101121.63;;;32.35;32.34
3444;BME280;1736;52.068;6.968;2023-07-08T12:12:18;101126.56;;;32.11;32.53
3444;BME280;1736;52.068;6.968;2023-07-08T12:14:46;101121.28;;;32.31;32.06
3444;BME280;1736;52.068;6.968;2023-07-08T12:17:14;101120.22;;;32.32;31.84
3444;BME280;1736;52.068;6.968;2023-07-08T12:19:42;101120.56;;;32.41;31.39
3444;BME280;1736;52.068;6.968;2023-07-08T12:22:10;101124.19;;;32.46;31.51
3444;BME280;1736;52.068;6.968;2023-07-08T12:24:37;101118.19;;;32.49;32.35
3444;BME280;1736;52.068;6.968;2023-07-08T12:27:05;101121.59;;;32.61;32.05
3444;BME280;1736;52.068;6.968;2023-07-08T12:29:31;101125.81;;;32.74;31.34
3444;BME280;1736;52.068;6.968;2023-07-08T12:31:58;101114.16;;;32.62;31.41
3444;BME280;1736;52.068;6.968;2023-07-08T12:34:26;101113.63;;;32.65;32.10
3444;BME280;1736;52.068;6.968;2023-07-08T12:36:54;101106.75;;;32.62;31.46
3444;BME280;1736;52.068;6.968;2023-07-08T12:39:21;101099.06;;;32.64;32.25
3444;BME280;1736;52.068;6.968;2023-07-08T12:41:47;101110.97;;;32.75;29.73
3444;BME280;1736;52.068;6.968;2023-07-08T12:44:17;101111.97;;;32.59;29.50
3444;BME280;1736;52.068;6.968;2023-07-08T12:46:46;101114.41;;;32.60;29.50
3444;BME280;1736;52.068;6.968;2023-07-08T12:49:14;101117.16;;;32.60;30.63
3444;BME280;1736;52.068;6.968;2023-07-08T12:51:44;101117.22;;;32.65;31.98
3444;BME280;1736;52.068;6.968;2023-07-08T12:54:12;101107.78;;;32.56;31.45
3444;BME280;1736;52.068;6.968;2023-07-08T12:56:43;101102.09;;;32.63;31.06
3444;BME280;1736;52.068;6.968;2023-07-08T12:59:14;101105.91;;;32.62;31.29
3444;BME280;1736;52.068;6.968;2023-07-08T13:01:45;101113.09;;;32.63;30.91
3444;BME280;1736;52.068;6.968;2023-07-08T13:04:13;101104.25;;;32.61;30.12
3444;BME280;1736;52.068;6.968;2023-07-08T13:06:40;101116.63;;;32.58;30.32
3444;BME280;1736;52.068;6.968;2023-07-08T13:09:30;101112.75;;;32.59;30.54
3444;BME280;1736;52.068;6.968;2023-07-08T13:12:01;101113.28;;;32.56;30.08
3444;BME280;1736;52.068;6.968;2023-07-08T13:14:29;101115.53;;;32.64;29.70
3444;BME280;1736;52.068;6.968;2023-07-08T13:16:56;101110.06;;;32.64;30.18
3444;BME280;1736;52.068;6.968;2023-07-08T13:19:23;101113.09;;;32.63;30.09
3444;BME280;1736;52.068;6.968;2023-07-08T13:21:50;101098.00;;;32.65;30.30
3444;BME280;1736;52.068;6.968;2023-07-08T13:24:21;101109.56;;;32.72;31.19
3444;BME280;1736;52.068;6.968;2023-07-08T13:26:48;101112.25;;;32.62;30.91